createdAt,value
2022-08-21T00:00:42.354Z,19.07
2022-08-21T00:05:50.235Z,19.04
2022-08-21T00:10:52.295Z,18.96
2022-08-21T00:15:54.953Z,18.92
2022-08-21T00:20:56.991Z,18.88
2022-08-21T00:25:59.898Z,18.84
2022-08-21T00:31:04.321Z,18.76
2022-08-21T00:36:06.766Z,18.66
2022-08-21T00:41:37.832Z,18.57
2022-08-21T00:46:31.138Z,18.49
2022-08-21T00:51:58.775Z,18.44
2022-08-21T00:57:06.351Z,18.42
2022-08-21T01:02:09.946Z,18.42
2022-08-21T01:07:11.830Z,18.42
2022-08-21T01:12:14.204Z,18.39
2022-08-21T01:17:18.341Z,18.36
2022-08-21T01:22:20.472Z,18.34
2022-08-21T01:27:22.531Z,18.30
2022-08-21T01:32:25.079Z,18.26
2022-08-21T01:37:27.025Z,18.24
2022-08-21T01:42:28.945Z,18.22
2022-08-21T01:47:30.970Z,18.21
2022-08-21T01:52:33.324Z,18.13
2022-08-21T01:57:35.401Z,18.06
2022-08-21T02:02:37.826Z,17.98
2022-08-21T02:07:42.797Z,17.99
2022-08-21T02:12:44.921Z,17.94
2022-08-21T02:17:52.833Z,17.89
2022-08-21T02:22:54.915Z,17.85
2022-08-21T02:27:58.768Z,17.81
2022-08-21T02:33:01.459Z,17.78
2022-08-21T02:38:07.161Z,17.72
2022-08-21T02:43:16.563Z,17.70
2022-08-21T02:48:21.558Z,17.66
2022-08-21T02:53:23.574Z,17.65
2022-08-21T02:58:31.924Z,17.65
2022-08-21T03:03:35.819Z,17.63
2022-08-21T03:08:38.945Z,17.59
2022-08-21T03:13:41.027Z,17.58
2022-08-21T03:18:43.112Z,17.56
2022-08-21T03:23:44.963Z,17.54
2022-08-21T03:28:49.447Z,17.54
2022-08-21T03:33:52.372Z,17.52
2022-08-21T03:38:54.347Z,17.52
2022-08-21T03:43:56.262Z,17.53
2022-08-21T03:48:58.614Z,17.53
2022-08-21T03:54:00.626Z,17.52
2022-08-21T03:59:04.167Z,17.51
2022-08-21T04:04:07.286Z,17.52
2022-08-21T04:09:09.388Z,17.51
2022-08-21T04:14:11.284Z,17.49
2022-08-21T04:19:13.923Z,17.50
2022-08-21T04:24:16.026Z,17.49
2022-08-21T04:29:17.991Z,17.51
2022-08-21T04:34:19.968Z,17.49
2022-08-21T04:39:21.979Z,17.48
2022-08-21T04:44:31.499Z,17.46
2022-08-21T04:49:33.697Z,17.44
2022-08-21T04:54:36.101Z,17.43
2022-08-21T04:59:42.278Z,17.43
2022-08-21T05:04:52.180Z,17.46
2022-08-21T05:09:55.328Z,17.50
2022-08-21T05:14:57.302Z,17.50
2022-08-21T05:19:59.287Z,17.51
2022-08-21T05:25:01.575Z,17.45
2022-08-21T05:30:05.722Z,17.38
2022-08-21T05:35:08.402Z,17.33
2022-08-21T05:40:21.265Z,17.29
2022-08-21T05:45:43.537Z,17.27
2022-08-21T05:50:47.954Z,17.25
2022-08-21T05:55:51.083Z,17.25
2022-08-21T06:00:53.388Z,17.23
2022-08-21T06:05:56.317Z,17.19
2022-08-21T06:11:00.245Z,17.15
2022-08-21T06:16:16.162Z,17.12
2022-08-21T06:21:18.776Z,17.14
2022-08-21T06:26:22.021Z,17.13
2022-08-21T06:31:26.235Z,17.11
2022-08-21T06:36:28.562Z,17.11
2022-08-21T06:41:30.644Z,17.10
2022-08-21T06:46:41.102Z,17.11
2022-08-21T06:51:42.967Z,17.11
2022-08-21T06:56:47.612Z,17.08
2022-08-21T07:01:49.977Z,16.89
2022-08-21T07:06:54.040Z,16.59
2022-08-21T07:11:57.561Z,16.36
2022-08-21T07:16:59.447Z,16.30
2022-08-21T07:22:02.716Z,16.25
2022-08-21T07:27:10.218Z,16.10
2022-08-21T07:32:21.484Z,15.75
2022-08-21T07:37:23.673Z,15.53
2022-08-21T07:42:27.519Z,15.36
2022-08-21T07:47:42.104Z,15.29
2022-08-21T07:52:45.747Z,15.24
2022-08-21T07:57:48.533Z,15.22
2022-08-21T08:02:51.777Z,15.27
2022-08-21T08:07:59.027Z,15.30
2022-08-21T08:13:02.087Z,15.28
2022-08-21T08:18:05.098Z,15.28
2022-08-21T08:23:11.391Z,15.26
2022-08-21T08:28:20.365Z,15.20
2022-08-21T08:33:23.127Z,15.16
2022-08-21T08:38:26.310Z,15.15
2022-08-21T08:43:29.663Z,15.23
2022-08-21T08:48:52.853Z,15.35
2022-08-21T08:54:00.655Z,15.46
2022-08-21T08:59:30.520Z,15.56
2022-08-21T09:04:32.977Z,15.64
2022-08-21T09:09:50.842Z,15.69
2022-08-21T09:15:02.203Z,15.84
2022-08-21T09:20:26.619Z,15.90
2022-08-21T09:25:35.527Z,15.97
2022-08-21T09:30:46.306Z,15.94
2022-08-21T09:35:55.545Z,16.06
2022-08-21T09:41:06.691Z,16.15
2022-08-21T09:46:21.958Z,16.12
2022-08-21T09:51:35.574Z,16.01
2022-08-21T09:57:17.662Z,15.89
2022-08-21T10:02:27.709Z,15.91
2022-08-21T10:07:37.272Z,15.82
2022-08-21T10:13:16.274Z,15.65
2022-08-21T10:18:53.714Z,15.57
2022-08-21T10:24:31.147Z,15.54
2022-08-21T10:30:04.714Z,15.63
2022-08-21T10:35:33.194Z,15.66
2022-08-21T10:41:12.313Z,15.70
2022-08-21T10:46:47.218Z,15.78
2022-08-21T10:52:34.788Z,15.81
2022-08-21T10:57:48.582Z,15.83
2022-08-21T11:03:16.015Z,16.04
2022-08-21T11:08:39.317Z,16.26
2022-08-21T11:14:35.317Z,16.38
2022-08-21T11:19:46.535Z,16.40
2022-08-21T11:24:59.940Z,16.42
2022-08-21T11:30:02.256Z,16.28
2022-08-21T11:35:17.240Z,16.23
2022-08-21T11:40:43.866Z,16.26
2022-08-21T11:45:56.660Z,16.32
2022-08-21T11:51:01.534Z,16.34
2022-08-21T11:56:12.998Z,16.32
2022-08-21T12:01:32.365Z,16.28
2022-08-21T12:06:39.612Z,16.20
2022-08-21T12:11:49.776Z,16.15
2022-08-21T12:16:51.788Z,16.11
2022-08-21T12:22:10.588Z,16.16
2022-08-21T12:27:41.928Z,16.23
2022-08-21T12:32:47.677Z,16.34
2022-08-21T12:38:01.011Z,16.36
2022-08-21T12:43:04.204Z,16.47
2022-08-21T12:48:15.983Z,16.50
2022-08-21T12:53:33.091Z,16.51
2022-08-21T12:58:35.927Z,16.51
2022-08-21T13:03:38.637Z,16.59
2022-08-21T13:08:45.499Z,16.73
2022-08-21T13:13:51.106Z,16.83
2022-08-21T13:19:04.158Z,16.90
2022-08-21T13:24:44.204Z,16.98
2022-08-21T13:29:52.221Z,16.98
2022-08-21T13:34:56.472Z,17.01
2022-08-21T13:39:58.791Z,17.05
2022-08-21T13:45:01.081Z,17.10
2022-08-21T13:50:03.989Z,17.17
2022-08-21T13:55:16.576Z,17.16
2022-08-21T14:00:25.259Z,17.12
2022-08-21T14:05:32.105Z,17.12
2022-08-21T14:10:43.833Z,17.11
2022-08-21T14:15:55.750Z,17.00
2022-08-21T14:21:09.723Z,16.96
2022-08-21T14:26:18.238Z,16.97
2022-08-21T14:31:22.603Z,16.93
2022-08-21T14:36:25.522Z,16.91
2022-08-21T14:41:30.206Z,16.93
2022-08-21T14:46:45.886Z,16.97
2022-08-21T14:52:01.209Z,17.04
2022-08-21T14:57:09.922Z,17.14
2022-08-21T15:02:14.758Z,17.20
2022-08-21T15:07:16.884Z,17.21
2022-08-21T15:12:20.542Z,17.26
2022-08-21T15:17:22.877Z,17.28
2022-08-21T15:22:28.041Z,17.35
2022-08-21T15:27:31.872Z,17.49
2022-08-21T15:32:33.846Z,17.59
2022-08-21T15:37:36.867Z,17.65
2022-08-21T15:42:46.813Z,17.66
2022-08-21T15:47:49.927Z,17.68
2022-08-21T15:52:51.876Z,17.67
2022-08-21T15:57:57.114Z,17.62
2022-08-21T16:03:01.826Z,17.62
2022-08-21T16:08:05.315Z,17.60
2022-08-21T16:13:23.077Z,17.57
2022-08-21T16:18:26.258Z,17.52
2022-08-21T16:23:28.291Z,17.45
2022-08-21T16:28:32.522Z,17.43
2022-08-21T16:33:41.306Z,17.42
2022-08-21T16:38:43.662Z,17.43
2022-08-21T16:43:49.563Z,17.44
2022-08-21T16:48:51.528Z,17.40
2022-08-21T16:53:53.531Z,17.37
2022-08-21T16:58:57.063Z,17.34
2022-08-21T17:03:59.936Z,17.29
2022-08-21T17:09:02.190Z,17.22
2022-08-21T17:14:08.350Z,17.16
2022-08-21T17:19:13.314Z,16.98
2022-08-21T17:24:15.722Z,16.84
2022-08-21T17:29:20.642Z,16.75
2022-08-21T17:34:23.194Z,16.63
2022-08-21T17:39:31.469Z,16.56
2022-08-21T17:44:52.811Z,16.55
2022-08-21T17:49:56.601Z,16.58
2022-08-21T17:55:00.226Z,16.60
2022-08-21T18:00:06.288Z,16.60
2022-08-21T18:05:29.100Z,16.60
2022-08-21T18:10:31.958Z,16.57
2022-08-21T18:15:35.063Z,16.53
2022-08-21T18:20:37.215Z,16.49
2022-08-21T18:25:42.285Z,16.43
2022-08-21T18:30:47.679Z,16.38
2022-08-21T18:35:50.052Z,16.34
2022-08-21T18:40:56.064Z,16.30
2022-08-21T18:46:05.111Z,16.27
2022-08-21T18:51:12.270Z,16.23
2022-08-21T19:01:51.909Z,16.23
2022-08-21T19:06:54.244Z,16.22
2022-08-21T19:11:57.877Z,16.23
2022-08-21T19:17:00.778Z,16.23
2022-08-21T19:22:11.257Z,16.19
2022-08-21T19:27:15.986Z,16.16
2022-08-21T19:32:24.930Z,16.13
2022-08-21T19:37:32.183Z,16.09
2022-08-21T19:42:42.050Z,16.03
2022-08-21T19:47:48.497Z,15.99
2022-08-21T19:52:51.647Z,15.93
2022-08-21T19:57:55.274Z,15.88
2022-08-21T20:02:57.499Z,15.82
2022-08-21T20:08:00.316Z,15.79
2022-08-21T20:13:03.594Z,15.76
2022-08-21T20:18:05.904Z,15.75
2022-08-21T20:23:10.661Z,15.75
2022-08-21T20:28:16.937Z,15.74
2022-08-21T20:33:19.989Z,15.72
2022-08-21T20:38:23.061Z,15.72
2022-08-21T20:43:28.018Z,15.71
2022-08-21T20:48:49.098Z,15.69
2022-08-21T20:54:29.557Z,15.70
2022-08-21T20:59:45.103Z,15.66
2022-08-21T21:05:11.069Z,15.66
2022-08-21T21:10:26.475Z,15.64
2022-08-21T21:15:33.133Z,15.62
2022-08-21T21:20:57.323Z,15.62
2022-08-21T21:26:21.117Z,15.65
2022-08-21T21:31:26.984Z,15.66
2022-08-21T21:36:56.207Z,15.67
2022-08-21T21:42:54.437Z,15.69
2022-08-21T21:48:06.791Z,15.72
2022-08-21T21:53:22.522Z,15.72
2022-08-21T21:58:38.281Z,15.74
2022-08-21T22:03:56.505Z,15.71
2022-08-21T22:09:34.209Z,15.70
2022-08-21T22:14:41.614Z,15.63
2022-08-21T22:19:45.220Z,15.52
2022-08-21T22:24:54.025Z,15.43
2022-08-21T22:30:00.855Z,15.35
2022-08-21T22:35:14.928Z,15.30
2022-08-21T22:40:26.306Z,15.25
2022-08-21T22:45:51.442Z,15.22
2022-08-21T22:51:07.447Z,15.16
2022-08-21T22:56:13.162Z,15.12
2022-08-21T23:01:43.961Z,15.07
2022-08-21T23:06:57.887Z,15.02
2022-08-21T23:17:31.761Z,15.03
2022-08-21T23:23:01.582Z,15.08
2022-08-21T23:28:28.631Z,15.10
2022-08-21T23:33:52.348Z,15.11
2022-08-21T23:39:10.778Z,15.12
2022-08-21T23:44:52.033Z,15.08
2022-08-21T23:50:25.372Z,15.07
2022-08-21T23:56:01.548Z,15.07
